createdAt,value
2017-08-03T00:00:30.420Z,0
2017-08-03T00:01:40.651Z,0
2017-08-03T00:02:50.584Z,0
2017-08-03T00:04:00.199Z,0
2017-08-03T00:05:09.832Z,0
2017-08-03T00:06:19.748Z,0
2017-08-03T00:07:29.981Z,0
2017-08-03T00:08:39.901Z,0
2017-08-03T00:09:50.125Z,0
2017-08-03T00:10:59.737Z,0
2017-08-03T00:12:09.652Z,0
2017-08-03T00:13:19.594Z,0
2017-08-03T00:14:29.209Z,0
2017-08-03T00:15:39.174Z,0
2017-08-03T00:16:49.616Z,0
2017-08-03T00:17:59.252Z,0
2017-08-03T00:19:09.503Z,0
2017-08-03T00:20:19.442Z,0
2017-08-03T00:21:29.396Z,0
2017-08-03T00:22:39.316Z,0
2017-08-03T00:23:48.950Z,0
2017-08-03T00:24:58.888Z,0
2017-08-03T00:26:09.113Z,0
2017-08-03T00:27:18.746Z,0
2017-08-03T00:28:28.679Z,0
2017-08-03T00:29:38.932Z,0
2017-08-03T00:30:48.869Z,0
2017-08-03T00:31:58.794Z,0
2017-08-03T00:33:09.022Z,0
2017-08-03T00:34:18.979Z,0
2017-08-03T00:35:28.901Z,0
2017-08-03T00:36:38.854Z,0
2017-08-03T00:37:48.800Z,0
2017-08-03T00:38:58.721Z,0
2017-08-03T00:40:08.948Z,0
2017-08-03T00:41:18.584Z,0
2017-08-03T00:42:28.520Z,0
2017-08-03T00:43:38.438Z,0
2017-08-03T00:44:48.665Z,0
2017-08-03T00:45:58.603Z,0
2017-08-03T00:47:08.514Z,0
2017-08-03T00:48:17.823Z,0
2017-08-03T00:49:27.749Z,0
2017-08-03T00:50:37.963Z,0
2017-08-03T00:51:47.895Z,0
2017-08-03T00:52:58.513Z,0
2017-08-03T00:54:08.746Z,0
2017-08-03T00:55:18.663Z,0
2017-08-03T00:56:28.584Z,0
2017-08-03T00:57:38.815Z,0
2017-08-03T00:58:48.461Z,0
2017-08-03T00:59:58.704Z,0
2017-08-03T01:01:08.633Z,0
2017-08-03T01:02:18.571Z,0
2017-08-03T01:03:28.494Z,0
2017-08-03T01:04:38.438Z,0
2017-08-03T01:05:48.066Z,0
2017-08-03T01:06:57.695Z,0
2017-08-03T01:08:07.624Z,0
2017-08-03T01:09:17.551Z,0
2017-08-03T01:10:27.781Z,0
2017-08-03T01:11:37.697Z,0
2017-08-03T01:12:47.618Z,0
2017-08-03T01:13:57.529Z,0
2017-08-03T01:15:07.150Z,0
2017-08-03T01:22:38.287Z,0
2017-08-03T01:23:48.212Z,0
2017-08-03T01:24:58.145Z,0
2017-08-03T01:26:08.376Z,0
2017-08-03T01:27:18.302Z,0
2017-08-03T01:28:28.549Z,0
2017-08-03T01:29:38.480Z,0
2017-08-03T01:30:48.414Z,0
2017-08-03T01:31:58.337Z,0
2017-08-03T01:33:08.273Z,0
2017-08-03T01:34:17.893Z,0
2017-08-03T01:35:28.136Z,0
2017-08-03T01:36:37.753Z,0
2017-08-03T01:37:47.989Z,0
2017-08-03T01:38:57.321Z,0
2017-08-03T01:40:07.273Z,0
2017-08-03T01:41:17.217Z,0
2017-08-03T01:42:27.140Z,0
2017-08-03T01:43:37.082Z,0
2017-08-03T01:44:47.011Z,0
2017-08-03T01:45:56.974Z,0
2017-08-03T01:47:06.611Z,0
2017-08-03T01:48:16.227Z,0
2017-08-03T01:49:25.835Z,0
2017-08-03T01:50:36.104Z,0
2017-08-03T01:51:46.025Z,0
2017-08-03T01:52:55.664Z,0
2017-08-03T01:54:05.896Z,0
2017-08-03T01:55:15.810Z,0
2017-08-03T01:56:26.052Z,0
2017-08-03T01:57:35.682Z,0
2017-08-03T01:58:45.911Z,0
2017-08-03T01:59:55.858Z,0
2017-08-03T02:01:05.471Z,0
2017-08-03T02:02:15.397Z,0
2017-08-03T02:03:25.639Z,0
2017-08-03T02:04:35.250Z,0
2017-08-03T02:05:44.908Z,0
2017-08-03T02:06:54.537Z,0
2017-08-03T02:08:04.473Z,0
2017-08-03T02:09:14.419Z,0
2017-08-03T02:10:24.682Z,0
2017-08-03T02:11:34.611Z,0
2017-08-03T02:12:44.545Z,0
2017-08-03T02:13:54.161Z,0
2017-08-03T02:15:03.778Z,0
2017-08-03T02:16:14.010Z,0
2017-08-03T02:17:23.933Z,0
2017-08-03T02:18:33.860Z,0
2017-08-03T02:19:44.080Z,0
2017-08-03T02:20:53.694Z,0
2017-08-03T02:22:03.605Z,0
2017-08-03T02:23:13.832Z,0
2017-08-03T02:24:23.145Z,0
2017-08-03T02:25:33.061Z,0
2017-08-03T02:26:43.507Z,0
2017-08-03T02:27:53.739Z,0
2017-08-03T02:29:03.977Z,0
2017-08-03T02:30:14.207Z,0
2017-08-03T02:31:24.444Z,0
2017-08-03T02:32:33.745Z,0
2017-08-03T02:33:43.672Z,0
2017-08-03T02:34:53.597Z,0
2017-08-03T02:36:03.211Z,0
2017-08-03T02:37:12.822Z,0
2017-08-03T02:38:23.047Z,0
2017-08-03T02:39:32.668Z,0
2017-08-03T02:40:42.281Z,0
2017-08-03T02:41:52.217Z,0
2017-08-03T02:43:02.468Z,0
2017-08-03T02:44:12.404Z,0
2017-08-03T02:45:22.045Z,0
2017-08-03T02:46:32.318Z,0
2017-08-03T02:47:42.585Z,0
2017-08-03T02:48:52.820Z,0
2017-08-03T02:50:02.745Z,0
2017-08-03T02:51:12.981Z,0
2017-08-03T02:52:22.630Z,0
2017-08-03T02:53:32.250Z,0
2017-08-03T02:54:42.505Z,0
2017-08-03T02:55:52.750Z,0
2017-08-03T02:57:02.978Z,0
2017-08-03T02:58:12.596Z,0
2017-08-03T02:59:22.518Z,0
2017-08-03T03:00:32.753Z,0
2017-08-03T03:01:42.351Z,0
2017-08-03T03:02:52.291Z,0
2017-08-03T03:04:02.215Z,0
2017-08-03T03:05:12.164Z,0
2017-08-03T03:06:21.792Z,0
2017-08-03T03:07:32.049Z,0
2017-08-03T03:08:42.293Z,0
2017-08-03T03:09:52.245Z,0
2017-08-03T03:11:02.508Z,0
2017-08-03T03:12:12.784Z,0
2017-08-03T03:13:22.727Z,0
2017-08-03T03:14:32.342Z,0
2017-08-03T03:15:42.581Z,0
2017-08-03T03:16:52.816Z,0
2017-08-03T03:18:03.052Z,0
2017-08-03T03:19:13.274Z,0
2017-08-03T03:20:23.200Z,0
2017-08-03T03:21:32.819Z,0
2017-08-03T03:22:42.443Z,0
2017-08-03T03:23:52.389Z,0
2017-08-03T03:25:02.637Z,0
2017-08-03T03:26:12.856Z,0
2017-08-03T03:27:22.156Z,0
2017-08-03T03:28:32.106Z,0
2017-08-03T03:29:42.364Z,0
2017-08-03T03:30:52.638Z,0
2017-08-03T03:32:02.557Z,0
2017-08-03T03:33:12.800Z,0
2017-08-03T03:34:22.421Z,0
2017-08-03T03:35:32.662Z,0
2017-08-03T03:36:42.593Z,0
2017-08-03T03:37:52.826Z,0
2017-08-03T03:39:03.049Z,0
2017-08-03T03:40:13.285Z,0
2017-08-03T03:41:22.907Z,0
2017-08-03T03:42:32.536Z,0
2017-08-03T03:43:42.450Z,0
2017-08-03T03:44:52.390Z,0
2017-08-03T03:46:02.006Z,0
2017-08-03T03:47:12.245Z,0
2017-08-03T03:48:22.468Z,0
2017-08-03T03:49:32.098Z,0
2017-08-03T03:50:41.759Z,0
2017-08-03T03:51:51.684Z,0
2017-08-03T03:53:01.017Z,0
2017-08-03T03:54:11.247Z,0
2017-08-03T03:55:20.852Z,0
2017-08-03T03:56:30.774Z,0
2017-08-03T03:57:40.396Z,0
2017-08-03T03:58:50.334Z,0
2017-08-03T04:00:00.258Z,0
2017-08-03T04:01:10.211Z,0
2017-08-03T04:02:20.138Z,0
2017-08-03T04:03:30.067Z,0
2017-08-03T04:04:39.989Z,0
2017-08-03T04:05:50.233Z,0
2017-08-03T04:07:00.187Z,0
2017-08-03T04:08:10.421Z,0
2017-08-03T04:09:20.383Z,0
2017-08-03T04:10:30.602Z,0
2017-08-03T04:11:40.838Z,0
2017-08-03T04:12:50.747Z,0
2017-08-03T04:14:00.679Z,0
2017-08-03T04:15:10.288Z,0
2017-08-03T04:16:20.518Z,0
2017-08-03T04:17:30.761Z,0
2017-08-03T04:18:40.693Z,0
2017-08-03T04:19:50.945Z,0
2017-08-03T04:21:00.567Z,0
2017-08-03T04:22:10.489Z,0
2017-08-03T04:23:20.422Z,0
2017-08-03T04:24:30.659Z,0
2017-08-03T04:25:40.594Z,0
2017-08-03T04:26:50.833Z,0
2017-08-03T04:28:00.445Z,0
2017-08-03T04:29:10.378Z,0
2017-08-03T04:30:20.317Z,0
2017-08-03T04:31:29.941Z,0
2017-08-03T04:32:40.180Z,0
2017-08-03T04:33:50.445Z,0
2017-08-03T04:35:00.362Z,0
2017-08-03T04:36:10.363Z,0
2017-08-03T04:37:20.312Z,0
2017-08-03T04:38:29.963Z,0
2017-08-03T04:39:39.904Z,0
2017-08-03T04:40:49.842Z,0
2017-08-03T04:41:59.778Z,0
2017-08-03T04:43:09.699Z,0
2017-08-03T04:44:19.937Z,0
2017-08-03T04:45:29.863Z,0
2017-08-03T04:46:39.497Z,0
2017-08-03T04:47:49.431Z,0
2017-08-03T04:48:59.346Z,0
2017-08-03T04:50:08.348Z,0
2017-08-03T04:51:18.583Z,0
2017-08-03T04:52:28.506Z,0
2017-08-03T04:53:38.748Z,0
2017-08-03T04:54:48.979Z,0
2017-08-03T04:55:58.603Z,0
2017-08-03T04:57:08.837Z,0
2017-08-03T04:58:18.471Z,0
2017-08-03T04:59:27.786Z,0
2017-08-03T05:00:37.420Z,0
2017-08-03T05:01:47.668Z,0
2017-08-03T05:02:57.278Z,0
2017-08-03T05:04:07.523Z,0
2017-08-03T05:05:17.765Z,0
2017-08-03T05:06:27.692Z,0
2017-08-03T05:07:37.650Z,0
2017-08-03T05:08:47.900Z,0
2017-08-03T05:09:57.831Z,0
2017-08-03T05:11:07.760Z,0
2017-08-03T05:12:17.394Z,0
2017-08-03T05:13:27.028Z,0
2017-08-03T05:14:36.974Z,0
2017-08-03T05:15:46.892Z,0
2017-08-03T05:16:56.822Z,0
2017-08-03T05:18:07.050Z,0
2017-08-03T05:19:17.007Z,0
2017-08-03T05:20:26.939Z,0
2017-08-03T05:21:36.920Z,0
2017-08-03T05:22:46.864Z,0
2017-08-03T05:23:56.795Z,0
2017-08-03T05:25:06.751Z,0
2017-08-03T05:26:17.000Z,0
2017-08-03T05:27:26.911Z,0
2017-08-03T05:28:37.161Z,0
2017-08-03T05:29:47.099Z,0
2017-08-03T05:30:57.362Z,0
2017-08-03T05:32:07.027Z,0
2017-08-03T05:33:16.647Z,0
2017-08-03T05:34:26.267Z,0
2017-08-03T05:35:36.503Z,0
2017-08-03T05:36:46.423Z,0
2017-08-03T05:37:56.356Z,0
2017-08-03T05:39:06.286Z,0
2017-08-03T05:40:15.910Z,0
2017-08-03T05:41:25.602Z,0
2017-08-03T05:42:35.530Z,0
2017-08-03T05:43:45.464Z,0
2017-08-03T05:44:55.412Z,0
2017-08-03T05:46:05.651Z,0
2017-08-03T05:47:15.575Z,0
2017-08-03T05:48:25.499Z,0
2017-08-03T05:49:35.453Z,0
2017-08-03T05:50:45.693Z,0
2017-08-03T05:51:55.322Z,0
2017-08-03T05:53:06.057Z,0
2017-08-03T05:54:15.993Z,0
2017-08-03T05:55:25.369Z,0
2017-08-03T05:56:35.327Z,0
2017-08-03T05:57:44.945Z,0
2017-08-03T05:58:54.864Z,0
2017-08-03T06:00:05.106Z,0
2017-08-03T06:01:15.348Z,0
2017-08-03T06:02:25.276Z,0
2017-08-03T06:03:34.599Z,0
2017-08-03T06:04:43.612Z,0
2017-08-03T06:05:53.544Z,0
2017-08-03T06:07:03.502Z,0
2017-08-03T06:08:13.743Z,0
2017-08-03T06:09:23.361Z,0
2017-08-03T06:10:32.976Z,0
2017-08-03T06:11:43.207Z,0
2017-08-03T06:12:53.128Z,0
2017-08-03T06:14:03.046Z,0
2017-08-03T06:15:12.683Z,0
2017-08-03T06:16:22.641Z,0
2017-08-03T06:17:32.590Z,0
2017-08-03T06:18:42.843Z,0
2017-08-03T06:19:52.787Z,0
2017-08-03T06:21:02.111Z,0
2017-08-03T06:22:12.052Z,0
2017-08-03T06:23:22.315Z,0
2017-08-03T06:24:31.031Z,0
2017-08-03T06:25:40.983Z,0
2017-08-03T06:26:50.937Z,0
2017-08-03T06:28:00.563Z,0
2017-08-03T06:29:10.498Z,0
2017-08-03T06:30:20.432Z,0
2017-08-03T06:31:29.743Z,0
2017-08-03T06:32:39.682Z,0
2017-08-03T06:33:49.633Z,0
2017-08-03T06:34:59.569Z,0
2017-08-03T06:36:09.830Z,0
2017-08-03T06:37:19.742Z,0
2017-08-03T06:38:29.708Z,5
2017-08-03T06:39:39.339Z,0
2017-08-03T06:40:48.974Z,5
2017-08-03T06:41:58.606Z,0
2017-08-03T06:43:08.855Z,0
2017-08-03T06:44:19.101Z,0
2017-08-03T06:45:29.035Z,0
2017-08-03T06:46:39.269Z,0
2017-08-03T06:47:49.212Z,0
2017-08-03T06:48:59.138Z,0
2017-08-03T06:50:09.066Z,0
2017-08-03T06:51:19.299Z,0
2017-08-03T06:52:28.924Z,0
2017-08-03T06:53:38.594Z,0
2017-08-03T06:54:48.523Z,0
2017-08-03T06:55:58.140Z,0
2017-08-03T06:57:08.383Z,0
2017-08-03T06:58:18.640Z,5
2017-08-03T06:59:28.860Z,5
2017-08-03T07:00:38.786Z,5
2017-08-03T07:01:48.720Z,5
2017-08-03T07:02:58.396Z,5
2017-08-03T07:04:08.634Z,5
2017-08-03T07:05:18.910Z,5
2017-08-03T07:06:28.851Z,5
2017-08-03T07:07:38.786Z,5
2017-08-03T07:08:48.113Z,5
2017-08-03T07:09:58.339Z,5
2017-08-03T07:11:07.951Z,5
2017-08-03T07:12:17.570Z,0
2017-08-03T07:13:27.818Z,0
2017-08-03T07:14:37.448Z,0
2017-08-03T07:15:47.422Z,0
2017-08-03T07:16:57.679Z,5
2017-08-03T07:18:07.633Z,5
2017-08-03T07:19:17.598Z,5
2017-08-03T07:20:27.535Z,5
2017-08-03T07:21:37.806Z,0
2017-08-03T07:22:47.750Z,0
2017-08-03T07:23:57.697Z,5
2017-08-03T07:25:07.625Z,5
2017-08-03T07:26:17.277Z,5
2017-08-03T07:27:27.201Z,5
2017-08-03T07:28:37.141Z,5
2017-08-03T07:29:47.072Z,5
2017-08-03T07:30:57.019Z,5
2017-08-03T07:32:06.952Z,5
2017-08-03T07:33:17.199Z,5
2017-08-03T07:34:27.160Z,5
2017-08-03T07:35:37.113Z,5
2017-08-03T07:36:47.040Z,5
2017-08-03T07:37:56.973Z,5
2017-08-03T07:39:07.226Z,5
2017-08-03T07:40:17.477Z,5
2017-08-03T07:41:26.801Z,5
2017-08-03T07:42:36.749Z,10
2017-08-03T07:43:46.986Z,10
2017-08-03T07:44:56.943Z,10
2017-08-03T07:46:06.864Z,5
2017-08-03T07:47:16.474Z,5
2017-08-03T07:48:26.420Z,5
2017-08-03T07:49:36.074Z,5
2017-08-03T07:50:45.698Z,5
2017-08-03T07:51:55.955Z,5
2017-08-03T07:53:06.196Z,5
2017-08-03T07:54:15.842Z,5
2017-08-03T07:55:25.458Z,5
2017-08-03T07:56:35.746Z,5
2017-08-03T07:57:45.688Z,5
2017-08-03T07:58:55.627Z,5
2017-08-03T08:00:05.576Z,5
2017-08-03T08:01:15.289Z,5
2017-08-03T08:02:25.538Z,5
2017-08-03T08:03:35.793Z,5
2017-08-03T08:04:45.728Z,5
2017-08-03T08:05:55.343Z,5
2017-08-03T08:07:05.314Z,5
2017-08-03T08:08:14.972Z,10
2017-08-03T08:09:24.917Z,10
2017-08-03T08:10:35.190Z,10
2017-08-03T08:11:45.146Z,5
2017-08-03T08:12:55.085Z,5
2017-08-03T08:14:05.022Z,10
2017-08-03T08:15:15.331Z,10
2017-08-03T08:16:25.271Z,10
2017-08-03T08:17:35.521Z,10
2017-08-03T08:18:45.458Z,10
2017-08-03T08:19:55.118Z,15
2017-08-03T08:21:04.759Z,10
2017-08-03T08:22:14.419Z,10
2017-08-03T08:23:24.367Z,10
2017-08-03T08:24:34.657Z,10
2017-08-03T08:25:44.591Z,10
2017-08-03T08:26:54.553Z,15
2017-08-03T08:28:04.177Z,15
2017-08-03T08:29:14.103Z,15
2017-08-03T08:30:24.374Z,15
2017-08-03T08:31:34.350Z,10
2017-08-03T08:32:44.611Z,10
2017-08-03T08:33:54.535Z,5
2017-08-03T08:35:04.175Z,5
2017-08-03T08:36:14.144Z,5
2017-08-03T08:37:24.390Z,5
2017-08-03T08:38:34.634Z,5
2017-08-03T08:39:44.257Z,5
2017-08-03T08:40:54.187Z,5
2017-08-03T08:42:03.810Z,5
2017-08-03T08:43:13.785Z,5
2017-08-03T08:44:23.414Z,5
2017-08-03T08:45:33.657Z,10
2017-08-03T08:46:43.287Z,10
2017-08-03T08:47:53.208Z,10
2017-08-03T08:49:03.127Z,15
2017-08-03T08:50:13.358Z,15
2017-08-03T08:51:23.283Z,20
2017-08-03T08:52:33.259Z,15
2017-08-03T08:53:43.179Z,15
2017-08-03T08:54:52.796Z,15
2017-08-03T08:56:02.730Z,20
2017-08-03T08:57:12.686Z,20
2017-08-03T08:58:22.627Z,25
2017-08-03T08:59:32.573Z,20
2017-08-03T09:00:42.845Z,15
2017-08-03T09:01:52.798Z,10
2017-08-03T09:03:02.132Z,10
2017-08-03T09:04:12.073Z,15
2017-08-03T09:05:21.693Z,15
2017-08-03T09:06:31.372Z,15
2017-08-03T09:07:41.297Z,10
2017-08-03T09:08:51.242Z,10
2017-08-03T09:10:01.489Z,10
2017-08-03T09:11:11.446Z,10
2017-08-03T09:12:21.082Z,10
2017-08-03T09:13:31.042Z,10
2017-08-03T09:14:40.981Z,5
2017-08-03T09:15:51.227Z,5
2017-08-03T09:17:00.860Z,5
2017-08-03T09:18:11.109Z,5
2017-08-03T09:19:21.353Z,5
2017-08-03T09:20:30.996Z,10
2017-08-03T09:21:41.254Z,10
2017-08-03T09:22:51.196Z,10
2017-08-03T09:24:01.134Z,10
2017-08-03T09:25:11.073Z,15
2017-08-03T09:26:21.015Z,15
2017-08-03T09:27:30.975Z,15
2017-08-03T09:28:41.242Z,15
2017-08-03T09:29:50.565Z,15
2017-08-03T09:31:00.207Z,15
2017-08-03T09:32:09.842Z,25
2017-08-03T09:33:20.101Z,30
2017-08-03T09:34:30.046Z,20
2017-08-03T09:35:40.306Z,20
2017-08-03T09:36:50.267Z,20
2017-08-03T09:38:00.499Z,20
2017-08-03T09:39:10.450Z,20
2017-08-03T09:40:20.393Z,20
2017-08-03T09:41:30.331Z,30
2017-08-03T09:42:39.954Z,25
2017-08-03T09:43:49.885Z,20
2017-08-03T09:44:59.571Z,35
2017-08-03T09:46:09.854Z,35
2017-08-03T09:47:19.478Z,25
2017-08-03T09:48:28.801Z,25
2017-08-03T09:49:38.750Z,25
2017-08-03T09:50:49.066Z,25
2017-08-03T09:51:59.342Z,25
2017-08-03T09:53:08.970Z,30
2017-08-03T09:54:18.916Z,35
2017-08-03T09:55:29.155Z,40
2017-08-03T09:56:38.793Z,45
2017-08-03T09:57:49.038Z,40
2017-08-03T09:58:58.670Z,30
2017-08-03T10:00:08.923Z,30
2017-08-03T10:01:18.570Z,35
2017-08-03T10:02:28.508Z,30
2017-08-03T10:03:38.758Z,30
2017-08-03T10:04:48.386Z,30
2017-08-03T10:05:58.009Z,25
2017-08-03T10:07:07.959Z,25
2017-08-03T10:08:17.598Z,20
2017-08-03T10:09:27.842Z,25
2017-08-03T10:10:38.104Z,30
2017-08-03T10:11:48.041Z,30
2017-08-03T10:12:57.971Z,35
2017-08-03T10:14:07.620Z,30
2017-08-03T10:15:17.888Z,35
2017-08-03T10:16:28.134Z,30
2017-08-03T10:17:38.380Z,35
2017-08-03T10:18:47.996Z,25
2017-08-03T10:19:57.944Z,25
2017-08-03T10:21:07.896Z,30
2017-08-03T10:22:18.238Z,35
2017-08-03T10:23:28.468Z,40
2017-08-03T10:24:38.714Z,35
2017-08-03T10:25:48.653Z,30
2017-08-03T10:26:57.999Z,30
2017-08-03T10:28:08.253Z,20
2017-08-03T10:29:18.518Z,15
2017-08-03T10:30:28.456Z,20
2017-08-03T10:31:38.400Z,30
2017-08-03T10:32:47.716Z,30
2017-08-03T10:33:57.632Z,20
2017-08-03T10:35:07.288Z,20
2017-08-03T10:36:17.252Z,30
2017-08-03T10:37:27.216Z,20
2017-08-03T10:38:37.487Z,15
2017-08-03T10:39:47.487Z,10
2017-08-03T10:40:57.476Z,10
2017-08-03T10:42:07.152Z,15
2017-08-03T10:43:16.213Z,10
2017-08-03T10:44:26.482Z,10
2017-08-03T10:45:36.168Z,10
2017-08-03T10:46:46.448Z,10
2017-08-03T10:47:56.080Z,10
2017-08-03T10:49:05.716Z,10
2017-08-03T10:50:15.689Z,5
2017-08-03T10:51:25.343Z,10
2017-08-03T10:52:35.277Z,20
2017-08-03T10:53:45.217Z,5
2017-08-03T10:54:54.835Z,5
2017-08-03T10:56:04.469Z,5
2017-08-03T10:57:14.719Z,20
2017-08-03T10:58:24.976Z,15
2017-08-03T10:59:34.924Z,10
2017-08-03T11:00:44.247Z,15
2017-08-03T11:01:53.876Z,20
2017-08-03T11:03:02.904Z,20
2017-08-03T11:04:12.565Z,15
2017-08-03T11:05:22.535Z,15
2017-08-03T11:06:32.823Z,20
2017-08-03T11:07:42.767Z,35
2017-08-03T11:08:52.734Z,20
2017-08-03T11:10:02.358Z,20
2017-08-03T11:11:11.692Z,25
2017-08-03T11:12:21.020Z,30
2017-08-03T11:13:30.968Z,25
2017-08-03T11:14:40.610Z,35
2017-08-03T11:15:50.234Z,30
2017-08-03T11:16:59.884Z,30
2017-08-03T11:18:09.528Z,35
2017-08-03T11:19:19.862Z,30
2017-08-03T11:20:29.802Z,25
2017-08-03T11:21:39.752Z,25
2017-08-03T11:22:49.406Z,30
2017-08-03T11:23:59.356Z,25
2017-08-03T11:25:08.705Z,25
2017-08-03T11:26:18.954Z,25
2017-08-03T11:27:28.002Z,30
2017-08-03T11:28:38.265Z,30
2017-08-03T11:29:48.240Z,30
2017-08-03T11:30:58.482Z,30
2017-08-03T11:32:07.819Z,25
2017-08-03T11:33:17.783Z,25
2017-08-03T11:34:27.735Z,25
2017-08-03T11:35:37.673Z,25
2017-08-03T11:36:47.932Z,25
2017-08-03T11:37:57.894Z,30
2017-08-03T11:39:07.824Z,35
2017-08-03T11:40:17.802Z,30
2017-08-03T11:41:27.732Z,30
2017-08-03T11:42:37.977Z,25
2017-08-03T11:43:48.018Z,25
2017-08-03T11:44:57.952Z,20
2017-08-03T11:46:07.590Z,30
2017-08-03T11:47:17.961Z,30
2017-08-03T11:48:27.582Z,25
2017-08-03T11:49:37.522Z,20
2017-08-03T11:50:47.785Z,20
2017-08-03T11:51:58.041Z,30
2017-08-03T11:53:08.085Z,30
2017-08-03T11:54:18.017Z,30
2017-08-03T11:55:28.327Z,25
2017-08-03T11:56:38.298Z,20
2017-08-03T11:57:48.306Z,15
2017-08-03T11:58:58.295Z,20
2017-08-03T12:00:08.238Z,25
2017-08-03T12:01:17.904Z,20
2017-08-03T12:02:28.172Z,15
2017-08-03T12:03:37.929Z,25
2017-08-03T12:04:47.864Z,20
2017-08-03T12:05:57.503Z,20
2017-08-03T12:07:07.454Z,30
2017-08-03T12:08:17.394Z,20
2017-08-03T12:09:27.690Z,25
2017-08-03T12:10:37.316Z,25
2017-08-03T12:11:47.586Z,20
2017-08-03T12:12:57.224Z,20
2017-08-03T12:14:07.164Z,20
2017-08-03T12:15:17.491Z,20
2017-08-03T12:16:27.762Z,25
2017-08-03T12:17:38.046Z,20
2017-08-03T12:18:48.348Z,25
2017-08-03T12:19:57.986Z,20
2017-08-03T12:21:07.985Z,25
2017-08-03T12:22:18.233Z,25
2017-08-03T12:23:28.173Z,25
2017-08-03T12:24:37.827Z,25
2017-08-03T12:25:48.068Z,20
2017-08-03T12:26:58.349Z,20
2017-08-03T12:28:08.585Z,25
2017-08-03T12:29:18.304Z,20
2017-08-03T12:30:28.241Z,15
2017-08-03T12:31:37.874Z,15
2017-08-03T12:32:48.125Z,10
2017-08-03T12:33:58.116Z,20
2017-08-03T12:35:08.370Z,20
2017-08-03T12:36:18.008Z,20
2017-08-03T12:37:27.646Z,25
2017-08-03T12:38:38.005Z,20
2017-08-03T12:39:48.345Z,20
2017-08-03T12:40:57.045Z,20
2017-08-03T12:42:07.038Z,15
2017-08-03T12:43:16.982Z,15
2017-08-03T12:44:26.958Z,20
2017-08-03T12:45:36.898Z,25
2017-08-03T12:46:46.829Z,30
2017-08-03T12:47:56.415Z,15
2017-08-03T12:49:05.735Z,10
2017-08-03T12:50:15.672Z,15
2017-08-03T12:51:25.923Z,20
2017-08-03T12:52:35.370Z,15
2017-08-03T12:53:45.632Z,15
2017-08-03T12:54:55.583Z,20
2017-08-03T12:56:05.562Z,15
2017-08-03T12:57:14.883Z,15
2017-08-03T12:58:24.954Z,15
2017-08-03T12:59:34.265Z,10
2017-08-03T13:00:44.226Z,10
2017-08-03T13:01:53.872Z,10
2017-08-03T13:03:03.812Z,5
2017-08-03T13:04:13.445Z,10
2017-08-03T13:05:23.072Z,10
2017-08-03T13:06:33.369Z,10
2017-08-03T13:07:43.646Z,20
2017-08-03T13:08:53.584Z,15
2017-08-03T13:10:03.827Z,10
2017-08-03T13:11:13.754Z,10
2017-08-03T13:12:23.992Z,5
2017-08-03T13:13:33.916Z,5
2017-08-03T13:14:43.839Z,10
2017-08-03T13:15:53.183Z,10
2017-08-03T13:17:03.436Z,10
2017-08-03T13:18:13.388Z,10
2017-08-03T13:19:23.036Z,10
2017-08-03T13:20:33.272Z,10
2017-08-03T13:21:42.593Z,10
2017-08-03T13:22:52.543Z,15
2017-08-03T13:24:02.797Z,15
2017-08-03T13:25:13.072Z,15
2017-08-03T13:26:23.333Z,10
2017-08-03T13:27:33.263Z,15
2017-08-03T13:28:42.912Z,10
2017-08-03T13:29:52.862Z,5
2017-08-03T13:31:02.506Z,15
2017-08-03T13:32:11.842Z,10
2017-08-03T13:33:22.109Z,10
2017-08-03T13:34:32.056Z,10
2017-08-03T13:35:42.326Z,10
2017-08-03T13:36:52.273Z,10
2017-08-03T13:38:02.560Z,10
2017-08-03T13:39:12.205Z,10
2017-08-03T13:40:22.482Z,10
2017-08-03T13:41:32.727Z,10
2017-08-03T13:42:42.673Z,10
2017-08-03T13:43:52.653Z,10
2017-08-03T13:45:02.625Z,10
2017-08-03T13:46:12.885Z,10
2017-08-03T13:47:22.826Z,10
2017-08-03T13:48:32.767Z,10
2017-08-03T13:49:42.410Z,10
2017-08-03T13:50:52.035Z,10
2017-08-03T13:52:01.665Z,10
2017-08-03T13:53:11.605Z,10
2017-08-03T13:54:21.537Z,10
2017-08-03T13:55:31.167Z,10
2017-08-03T13:56:41.103Z,5
2017-08-03T13:57:51.041Z,10
2017-08-03T13:59:00.673Z,5
2017-08-03T14:00:10.286Z,10
2017-08-03T14:01:20.230Z,10
2017-08-03T14:02:30.494Z,10
2017-08-03T14:03:40.432Z,15
2017-08-03T14:04:49.449Z,15
2017-08-03T14:05:59.681Z,10
2017-08-03T14:07:09.958Z,10
2017-08-03T14:08:20.223Z,10
2017-08-03T14:09:30.172Z,10
2017-08-03T14:10:40.457Z,10
2017-08-03T14:11:49.790Z,10
2017-08-03T14:12:59.435Z,15
2017-08-03T14:14:09.391Z,15
2017-08-03T14:15:19.332Z,15
2017-08-03T14:16:29.589Z,15
2017-08-03T14:17:39.534Z,20
2017-08-03T14:18:48.858Z,20
2017-08-03T14:19:59.111Z,15
2017-08-03T14:21:08.765Z,20
2017-08-03T14:22:19.020Z,20
2017-08-03T14:23:29.301Z,20
2017-08-03T14:24:39.556Z,20
2017-08-03T14:25:49.513Z,20
2017-08-03T14:26:59.132Z,15
2017-08-03T14:28:09.102Z,15
2017-08-03T14:29:19.058Z,15
2017-08-03T14:30:29.315Z,20
2017-08-03T14:31:38.938Z,15
2017-08-03T14:32:48.912Z,15
2017-08-03T14:33:58.265Z,15
2017-08-03T14:35:08.551Z,10
2017-08-03T14:36:18.810Z,10
2017-08-03T14:37:29.080Z,15
2017-08-03T14:38:39.337Z,10
2017-08-03T14:39:49.613Z,10
2017-08-03T14:40:59.250Z,15
2017-08-03T14:42:09.213Z,10
2017-08-03T14:43:18.545Z,15
2017-08-03T14:44:28.832Z,20
2017-08-03T14:45:38.493Z,15
2017-08-03T14:46:48.467Z,15
2017-08-03T14:47:58.402Z,15
2017-08-03T14:49:08.689Z,15
2017-08-03T14:50:18.668Z,10
2017-08-03T14:51:28.608Z,5
2017-08-03T14:52:38.548Z,10
2017-08-03T14:53:48.484Z,5
2017-08-03T14:54:58.126Z,10
2017-08-03T14:56:08.081Z,10
2017-08-03T14:57:18.056Z,5
2017-08-03T14:58:27.703Z,5
2017-08-03T14:59:37.645Z,5
2017-08-03T15:00:47.927Z,10
2017-08-03T15:01:57.562Z,10
2017-08-03T15:03:07.796Z,10
2017-08-03T15:04:17.736Z,10
2017-08-03T15:05:27.686Z,10
2017-08-03T15:06:37.326Z,10
2017-08-03T15:07:47.570Z,15
2017-08-03T15:08:57.527Z,10
2017-08-03T15:10:07.178Z,10
2017-08-03T15:11:17.168Z,10
2017-08-03T15:12:27.423Z,5
2017-08-03T15:13:37.373Z,5
2017-08-03T15:14:47.312Z,5
2017-08-03T15:15:57.570Z,10
2017-08-03T15:17:06.890Z,10
2017-08-03T15:18:16.831Z,5
2017-08-03T15:19:26.783Z,5
2017-08-03T15:20:36.406Z,5
2017-08-03T15:21:46.717Z,10
2017-08-03T15:22:56.649Z,10
2017-08-03T15:24:06.592Z,5
2017-08-03T15:25:16.560Z,5
2017-08-03T15:26:26.511Z,5
2017-08-03T15:27:36.140Z,5
2017-08-03T15:28:46.076Z,5
2017-08-03T15:29:55.716Z,10
2017-08-03T15:31:05.649Z,15
2017-08-03T15:32:15.599Z,15
2017-08-03T15:33:25.525Z,15
2017-08-03T15:34:36.167Z,10
2017-08-03T15:35:46.154Z,10
2017-08-03T15:36:56.090Z,10
2017-08-03T15:38:06.374Z,10
2017-08-03T15:39:16.636Z,10
2017-08-03T15:40:26.586Z,15
2017-08-03T15:41:36.239Z,10
2017-08-03T15:42:46.179Z,10
2017-08-03T15:43:56.117Z,5
2017-08-03T15:45:05.519Z,10
2017-08-03T15:46:15.155Z,10
2017-08-03T15:47:24.809Z,10
2017-08-03T15:48:34.447Z,5
2017-08-03T15:49:44.442Z,5
2017-08-03T15:50:54.690Z,10
2017-08-03T15:52:04.043Z,5
2017-08-03T15:53:14.060Z,5
2017-08-03T15:54:24.323Z,5
2017-08-03T15:55:34.284Z,5
2017-08-03T15:56:44.276Z,10
2017-08-03T15:57:54.513Z,10
2017-08-03T15:59:03.862Z,10
2017-08-03T16:00:14.101Z,10
2017-08-03T16:01:24.361Z,5
2017-08-03T16:02:34.291Z,5
2017-08-03T16:03:44.224Z,5
2017-08-03T16:04:54.492Z,5
2017-08-03T16:06:03.805Z,5
2017-08-03T16:07:14.065Z,5
2017-08-03T16:08:24.343Z,5
2017-08-03T16:09:34.267Z,5
2017-08-03T16:10:44.198Z,5
2017-08-03T16:11:54.139Z,5
2017-08-03T16:13:03.477Z,5
2017-08-03T16:14:13.398Z,5
2017-08-03T16:15:23.671Z,5
2017-08-03T16:16:33.610Z,10
2017-08-03T16:17:43.886Z,10
2017-08-03T16:18:54.143Z,15
2017-08-03T16:20:03.778Z,10
2017-08-03T16:21:13.434Z,10
2017-08-03T16:22:23.692Z,5
2017-08-03T16:23:33.615Z,5
2017-08-03T16:24:43.853Z,5
2017-08-03T16:25:53.513Z,5
2017-08-03T16:27:03.765Z,5
2017-08-03T16:28:12.778Z,5
2017-08-03T16:29:23.027Z,5
2017-08-03T16:30:32.993Z,5
2017-08-03T16:31:43.255Z,5
2017-08-03T16:32:53.494Z,5
2017-08-03T16:34:03.442Z,5
2017-08-03T16:35:13.705Z,5
2017-08-03T16:36:23.380Z,5
2017-08-03T16:37:33.323Z,5
2017-08-03T16:38:43.264Z,5
2017-08-03T16:39:53.954Z,5
2017-08-03T16:41:03.591Z,5
2017-08-03T16:42:13.240Z,5
2017-08-03T16:43:22.263Z,5
2017-08-03T16:44:32.185Z,5
2017-08-03T16:45:41.825Z,5
2017-08-03T16:46:52.076Z,5
2017-08-03T16:48:02.324Z,5
2017-08-03T16:49:12.593Z,5
2017-08-03T16:50:22.224Z,5
2017-08-03T16:51:31.531Z,5
2017-08-03T16:52:41.449Z,5
2017-08-03T16:53:51.680Z,5
2017-08-03T16:55:01.615Z,5
2017-08-03T16:56:11.546Z,5
2017-08-03T16:57:21.801Z,5
2017-08-03T16:58:31.742Z,5
2017-08-03T16:59:41.360Z,5
2017-08-03T17:00:51.600Z,5
2017-08-03T17:02:01.210Z,5
2017-08-03T17:03:11.160Z,5
2017-08-03T17:04:21.124Z,5